createdAt,value
2019-05-19T00:02:08.438Z,10.81
2019-05-19T00:04:36.978Z,10.78
2019-05-19T00:07:05.509Z,10.80
2019-05-19T00:09:33.964Z,10.87
2019-05-19T00:12:02.383Z,10.93
2019-05-19T00:14:30.834Z,10.87
2019-05-19T00:16:59.254Z,10.85
2019-05-19T00:19:27.787Z,10.74
2019-05-19T00:21:56.246Z,10.62
2019-05-19T00:24:25.149Z,10.67
2019-05-19T00:26:53.655Z,10.73
2019-05-19T00:29:22.075Z,10.74
2019-05-19T00:31:50.537Z,10.80
2019-05-19T00:34:19.031Z,10.71
2019-05-19T00:36:47.452Z,10.74
2019-05-19T00:39:15.899Z,10.73
2019-05-19T00:41:44.436Z,10.75
2019-05-19T00:44:12.904Z,10.73
2019-05-19T00:46:41.405Z,10.81
2019-05-19T00:49:09.916Z,10.91
2019-05-19T00:51:38.877Z,10.78
2019-05-19T00:54:07.425Z,10.81
2019-05-19T00:56:36.279Z,10.80
2019-05-19T00:59:05.328Z,10.74
2019-05-19T01:01:33.794Z,10.64
2019-05-19T01:04:02.287Z,10.63
2019-05-19T01:06:30.851Z,10.71
2019-05-19T01:08:59.449Z,10.70
2019-05-19T01:11:27.946Z,10.78
2019-05-19T01:13:56.371Z,10.74
2019-05-19T01:16:24.893Z,10.76
2019-05-19T01:18:53.324Z,10.49
2019-05-19T01:21:21.941Z,10.39
2019-05-19T01:23:50.432Z,10.50
2019-05-19T01:26:18.866Z,10.46
2019-05-19T01:28:47.288Z,10.56
2019-05-19T01:31:16.887Z,10.56
2019-05-19T01:33:45.315Z,10.61
2019-05-19T01:36:13.748Z,10.63
2019-05-19T01:38:42.285Z,10.59
2019-05-19T01:41:10.789Z,10.59
2019-05-19T01:43:39.230Z,10.59
2019-05-19T01:46:07.711Z,10.67
2019-05-19T01:48:36.154Z,10.70
2019-05-19T01:51:04.637Z,10.62
2019-05-19T01:53:33.112Z,10.54
2019-05-19T01:56:01.553Z,10.58
2019-05-19T01:58:30.020Z,10.54
2019-05-19T02:00:58.457Z,10.50
2019-05-19T02:03:26.867Z,10.47
2019-05-19T02:05:55.333Z,10.46
2019-05-19T02:08:23.900Z,10.45
2019-05-19T02:10:52.404Z,10.37
2019-05-19T02:13:20.913Z,10.44
2019-05-19T02:15:49.416Z,10.43
2019-05-19T02:18:17.886Z,10.48
2019-05-19T02:20:46.441Z,10.59
2019-05-19T02:23:14.924Z,10.53
2019-05-19T02:25:43.375Z,10.47
2019-05-19T02:28:11.871Z,10.43
2019-05-19T02:30:40.444Z,10.42
2019-05-19T02:33:08.861Z,10.43
2019-05-19T02:35:37.341Z,10.47
2019-05-19T02:38:05.900Z,10.41
2019-05-19T02:40:36.075Z,10.41
2019-05-19T02:43:04.867Z,10.46
2019-05-19T02:45:36.018Z,10.47
2019-05-19T02:48:05.798Z,10.45
2019-05-19T02:50:50.798Z,10.42
2019-05-19T02:53:08.885Z,10.43
2019-05-19T02:55:37.838Z,10.48
2019-05-19T02:58:06.930Z,10.47
2019-05-19T03:00:37.918Z,10.46
2019-05-19T03:03:08.662Z,10.49
2019-05-19T03:05:38.126Z,10.49
2019-05-19T03:08:06.739Z,10.44
2019-05-19T03:10:35.244Z,10.40
2019-05-19T03:13:03.816Z,10.42
2019-05-19T03:15:32.263Z,10.39
2019-05-19T03:18:00.693Z,10.25
2019-05-19T03:20:29.294Z,10.18
2019-05-19T03:22:57.736Z,10.16
2019-05-19T03:25:26.169Z,10.38
2019-05-19T03:27:54.630Z,10.34
2019-05-19T03:30:33.691Z,10.29
2019-05-19T03:33:03.778Z,10.29
2019-05-19T03:35:32.219Z,10.28
2019-05-19T03:38:00.658Z,10.11
2019-05-19T03:40:29.233Z,10.03
2019-05-19T03:42:57.616Z,9.97
2019-05-19T03:45:26.038Z,9.99
2019-05-19T03:47:54.545Z,9.87
2019-05-19T03:50:23.011Z,9.86
2019-05-19T03:52:51.448Z,9.87
2019-05-19T03:55:19.895Z,9.78
2019-05-19T03:57:48.355Z,9.89
2019-05-19T04:00:18.979Z,9.99
2019-05-19T04:02:47.380Z,10.02
2019-05-19T04:05:15.879Z,10.03
2019-05-19T04:07:44.355Z,9.93
2019-05-19T04:10:13.004Z,9.98
2019-05-19T04:12:41.529Z,10.03
2019-05-19T04:15:10.150Z,10.11
2019-05-19T04:17:38.577Z,10.22
2019-05-19T04:20:08.407Z,10.27
2019-05-19T04:22:37.074Z,10.27
2019-05-19T04:25:06.346Z,10.28
2019-05-19T04:27:34.798Z,10.32
2019-05-19T04:30:03.503Z,10.40
2019-05-19T04:32:31.973Z,10.41
2019-05-19T04:35:00.428Z,10.43
2019-05-19T04:37:28.861Z,10.41
2019-05-19T04:39:57.318Z,10.45
2019-05-19T04:42:25.776Z,10.42
2019-05-19T04:44:54.200Z,10.45
2019-05-19T04:47:22.676Z,10.41
2019-05-19T04:49:51.161Z,10.49
2019-05-19T04:52:19.561Z,10.41
2019-05-19T04:54:48.028Z,10.47
2019-05-19T04:57:16.457Z,10.53
2019-05-19T04:59:44.941Z,10.52
2019-05-19T05:02:13.386Z,10.49
2019-05-19T05:04:41.942Z,10.53
2019-05-19T05:07:10.374Z,10.65
2019-05-19T05:09:38.801Z,10.63
2019-05-19T05:12:07.329Z,10.70
2019-05-19T05:14:35.760Z,10.72
2019-05-19T05:17:04.291Z,10.72
2019-05-19T05:19:32.720Z,10.84
2019-05-19T05:22:01.146Z,10.87
2019-05-19T05:24:29.605Z,10.83
2019-05-19T05:26:58.027Z,10.84
2019-05-19T05:29:26.557Z,10.82
2019-05-19T05:31:55.014Z,10.84
2019-05-19T05:34:23.443Z,10.86
2019-05-19T05:36:51.982Z,10.97
2019-05-19T05:39:20.472Z,11.10
2019-05-19T05:41:48.891Z,11.18
2019-05-19T05:44:17.353Z,11.28
2019-05-19T05:46:45.849Z,11.42
2019-05-19T05:49:14.375Z,11.48
2019-05-19T05:51:42.809Z,11.54
2019-05-19T05:54:11.248Z,11.63
2019-05-19T05:56:40.041Z,11.58
2019-05-19T05:59:08.550Z,11.72
2019-05-19T06:01:37.005Z,11.83
2019-05-19T06:04:05.512Z,11.77
2019-05-19T06:06:33.970Z,11.77
2019-05-19T06:09:04.226Z,11.88
2019-05-19T06:11:32.693Z,11.83
2019-05-19T06:14:01.117Z,11.83
2019-05-19T06:16:29.573Z,11.83
2019-05-19T06:18:57.988Z,11.83
2019-05-19T06:21:26.407Z,11.92
2019-05-19T06:23:54.932Z,11.77
2019-05-19T06:26:23.343Z,11.75
2019-05-19T06:28:51.784Z,11.73
2019-05-19T06:31:20.332Z,11.80
2019-05-19T06:33:48.862Z,11.94
2019-05-19T06:36:17.356Z,11.80
2019-05-19T06:38:45.803Z,11.73
2019-05-19T06:41:14.245Z,11.72
2019-05-19T06:43:42.702Z,11.74
2019-05-19T06:46:11.112Z,11.76
2019-05-19T06:48:39.567Z,11.77
2019-05-19T06:51:07.997Z,11.76
2019-05-19T06:53:36.559Z,11.86
2019-05-19T06:56:04.979Z,11.82
2019-05-19T06:58:33.472Z,11.85
2019-05-19T07:01:02.098Z,11.87
2019-05-19T07:03:30.550Z,11.98
2019-05-19T07:05:58.975Z,11.96
2019-05-19T07:08:27.422Z,11.96
2019-05-19T07:10:55.907Z,12.02
2019-05-19T07:13:24.409Z,12.08
2019-05-19T07:15:52.947Z,12.16
2019-05-19T07:18:21.418Z,12.24
2019-05-19T07:20:49.954Z,12.37
2019-05-19T07:23:27.704Z,12.26
2019-05-19T07:25:48.556Z,12.53
2019-05-19T07:28:17.017Z,12.69
2019-05-19T07:30:45.491Z,12.68
2019-05-19T07:33:13.954Z,12.86
2019-05-19T07:35:42.411Z,12.96
2019-05-19T07:38:10.865Z,13.26
2019-05-19T07:40:39.318Z,13.39
2019-05-19T07:43:07.809Z,13.73
2019-05-19T07:45:36.343Z,13.64
2019-05-19T07:48:04.780Z,13.70
2019-05-19T07:50:33.202Z,13.95
2019-05-19T07:53:01.680Z,14.17
2019-05-19T07:55:30.282Z,14.34
2019-05-19T07:57:58.785Z,14.66
2019-05-19T08:00:27.306Z,15.21
2019-05-19T08:02:55.857Z,15.79
2019-05-19T08:05:24.273Z,15.94
2019-05-19T08:07:52.691Z,15.89
2019-05-19T08:10:21.223Z,15.92
2019-05-19T08:12:49.720Z,15.96
2019-05-19T08:15:18.820Z,16.06
2019-05-19T08:17:47.240Z,16.08
2019-05-19T08:20:17.199Z,16.04
2019-05-19T08:22:46.199Z,15.83
2019-05-19T08:25:15.330Z,15.46
2019-05-19T08:27:43.775Z,15.33
2019-05-19T08:30:12.673Z,15.37
2019-05-19T08:32:41.160Z,15.41
2019-05-19T08:35:09.728Z,15.49
2019-05-19T08:37:38.215Z,15.53
2019-05-19T08:40:07.396Z,15.56
2019-05-19T08:42:35.970Z,15.51
2019-05-19T08:45:06.745Z,15.34
2019-05-19T08:47:35.263Z,15.17
2019-05-19T08:50:07.692Z,15.14
2019-05-19T08:52:36.211Z,15.05
2019-05-19T08:55:05.591Z,15.10
2019-05-19T08:57:34.075Z,15.11
2019-05-19T09:00:02.618Z,15.11
2019-05-19T09:02:31.081Z,14.92
2019-05-19T09:04:59.529Z,14.89
2019-05-19T09:07:28.058Z,14.82
2019-05-19T09:09:56.584Z,15.05
2019-05-19T09:12:25.047Z,15.06
2019-05-19T09:14:53.473Z,14.87
2019-05-19T09:17:21.924Z,15.26
2019-05-19T09:19:50.378Z,15.24
2019-05-19T09:22:18.938Z,15.27
2019-05-19T09:24:47.365Z,15.33
2019-05-19T09:27:15.869Z,15.32
2019-05-19T09:29:44.370Z,15.44
2019-05-19T09:32:12.794Z,15.41
2019-05-19T09:34:41.260Z,15.66
2019-05-19T09:37:09.678Z,15.57
2019-05-19T09:39:38.113Z,15.65
2019-05-19T09:42:06.621Z,15.69
2019-05-19T09:44:35.069Z,16.37
2019-05-19T09:47:03.586Z,16.55
2019-05-19T09:49:32.414Z,16.63
2019-05-19T09:52:01.385Z,17.13
2019-05-19T09:54:44.251Z,17.25
2019-05-19T09:57:01.814Z,16.70
2019-05-19T09:59:30.409Z,16.86
2019-05-19T10:01:59.111Z,16.79
2019-05-19T10:04:27.572Z,16.69
2019-05-19T10:06:56.181Z,16.37
2019-05-19T10:09:36.765Z,16.39
2019-05-19T10:12:07.149Z,16.22
2019-05-19T10:14:35.591Z,16.31
2019-05-19T10:17:04.290Z,16.24
2019-05-19T10:19:32.875Z,16.21
2019-05-19T10:22:01.294Z,16.49
2019-05-19T10:24:29.852Z,16.13
2019-05-19T10:26:58.309Z,16.18
2019-05-19T10:29:26.799Z,16.22
2019-05-19T10:31:55.327Z,16.28
2019-05-19T10:34:23.775Z,16.22
2019-05-19T10:36:52.195Z,16.28
2019-05-19T10:39:20.657Z,16.25
2019-05-19T10:41:49.157Z,16.33
2019-05-19T10:44:17.609Z,16.33
2019-05-19T10:46:46.076Z,16.63
2019-05-19T10:49:14.569Z,16.86
2019-05-19T10:51:43.092Z,17.29
2019-05-19T10:54:11.610Z,17.57
2019-05-19T10:56:40.096Z,17.68
2019-05-19T10:59:08.571Z,17.58
2019-05-19T11:01:37.175Z,17.64
2019-05-19T11:04:05.747Z,18.14
2019-05-19T11:06:34.182Z,18.75
2019-05-19T11:09:02.792Z,18.54
2019-05-19T11:11:31.218Z,18.54
2019-05-19T11:13:59.701Z,19.09
2019-05-19T11:16:28.148Z,19.23
2019-05-19T11:18:56.570Z,19.03
2019-05-19T11:21:25.115Z,19.33
2019-05-19T11:23:53.596Z,19.16
2019-05-19T11:26:22.253Z,19.40
2019-05-19T11:28:50.776Z,19.48
2019-05-19T11:31:19.200Z,19.64
2019-05-19T11:33:47.612Z,19.48
2019-05-19T11:36:16.097Z,19.48
2019-05-19T11:38:44.547Z,19.36
2019-05-19T11:41:13.002Z,19.13
2019-05-19T11:43:41.469Z,19.23
2019-05-19T11:46:09.992Z,19.65
2019-05-19T11:48:38.434Z,19.99
2019-05-19T11:51:06.881Z,19.99
2019-05-19T11:53:35.382Z,19.95
2019-05-19T11:56:06.649Z,19.94
2019-05-19T11:58:34.083Z,19.55
2019-05-19T12:01:02.658Z,19.70
2019-05-19T12:03:31.128Z,19.70
2019-05-19T12:05:59.564Z,19.82
2019-05-19T12:08:29.781Z,19.22
2019-05-19T12:10:58.336Z,19.38
2019-05-19T12:13:26.832Z,19.24
2019-05-19T12:15:55.369Z,19.30
2019-05-19T12:18:23.791Z,19.58
2019-05-19T12:20:52.278Z,19.86
2019-05-19T12:23:20.734Z,19.93
2019-05-19T12:25:49.209Z,19.88
2019-05-19T12:28:17.726Z,19.91
2019-05-19T12:30:46.204Z,19.93
2019-05-19T12:33:14.762Z,19.88
2019-05-19T12:35:43.264Z,19.95
2019-05-19T12:38:11.765Z,19.85
2019-05-19T12:40:40.679Z,19.95
2019-05-19T12:43:09.094Z,19.54
2019-05-19T12:45:37.596Z,19.88
2019-05-19T12:48:06.040Z,19.71
2019-05-19T12:50:34.641Z,19.83
2019-05-19T12:53:03.213Z,19.44
2019-05-19T12:55:31.751Z,18.63
2019-05-19T12:58:00.209Z,18.64
2019-05-19T13:00:28.790Z,19.05
2019-05-19T13:02:57.473Z,19.28
2019-05-19T13:05:25.910Z,19.10
2019-05-19T13:07:54.479Z,19.25
2019-05-19T13:10:22.965Z,19.32
2019-05-19T13:12:51.614Z,19.04
2019-05-19T13:15:20.551Z,19.08
2019-05-19T13:17:48.994Z,19.19
2019-05-19T13:20:17.554Z,19.34
2019-05-19T13:22:46.036Z,18.97
2019-05-19T13:25:14.610Z,18.77
2019-05-19T13:27:43.104Z,18.78
2019-05-19T13:30:12.210Z,18.86
2019-05-19T13:32:40.786Z,19.10
2019-05-19T13:35:09.378Z,18.98
2019-05-19T13:37:37.878Z,19.27
2019-05-19T13:40:10.084Z,19.34
2019-05-19T13:42:38.513Z,19.56
2019-05-19T13:45:07.682Z,19.55
2019-05-19T13:47:36.448Z,19.45
2019-05-19T13:50:09.334Z,19.44
2019-05-19T13:52:37.767Z,19.24
2019-05-19T13:55:06.945Z,19.48
2019-05-19T13:57:35.509Z,19.50
2019-05-19T14:00:04.830Z,19.53
2019-05-19T14:02:33.297Z,19.41
2019-05-19T14:05:01.751Z,19.67
2019-05-19T14:07:30.215Z,19.46
2019-05-19T14:09:58.662Z,19.32
2019-05-19T14:12:27.092Z,19.31
2019-05-19T14:14:55.588Z,19.12
2019-05-19T14:17:24.052Z,18.65
2019-05-19T14:19:52.477Z,18.62
2019-05-19T14:22:21.045Z,18.68
2019-05-19T14:24:49.504Z,18.64
2019-05-19T14:27:29.638Z,18.68
2019-05-19T14:29:48.161Z,18.73
2019-05-19T14:32:16.620Z,18.82
2019-05-19T14:34:45.122Z,18.61
2019-05-19T14:37:13.543Z,18.71
2019-05-19T14:39:42.142Z,18.98
2019-05-19T14:42:12.199Z,19.23
2019-05-19T14:44:40.619Z,19.36
2019-05-19T14:47:09.235Z,19.03
2019-05-19T14:49:37.717Z,18.91
2019-05-19T14:52:06.317Z,19.10
2019-05-19T14:54:34.776Z,19.05
2019-05-19T14:57:03.216Z,18.89
2019-05-19T14:59:31.659Z,18.83
2019-05-19T15:02:00.072Z,18.97
2019-05-19T15:04:28.654Z,19.03
2019-05-19T15:06:57.101Z,18.96
2019-05-19T15:09:25.533Z,18.59
2019-05-19T15:11:53.987Z,18.85
2019-05-19T15:14:22.500Z,18.56
2019-05-19T15:16:50.924Z,18.05
2019-05-19T15:19:19.445Z,17.96
2019-05-19T15:21:47.971Z,17.85
2019-05-19T15:24:16.508Z,17.70
2019-05-19T15:26:44.941Z,17.50
2019-05-19T15:29:13.425Z,17.79
2019-05-19T15:31:41.850Z,17.61
2019-05-19T15:34:10.283Z,17.66
2019-05-19T15:36:38.836Z,17.48
2019-05-19T15:39:07.621Z,17.42
2019-05-19T15:41:36.123Z,17.54
2019-05-19T15:44:04.727Z,17.58
2019-05-19T15:46:33.270Z,17.66
2019-05-19T15:49:01.797Z,17.66
2019-05-19T15:51:37.154Z,17.68
2019-05-19T15:54:00.598Z,17.49
2019-05-19T15:56:29.137Z,17.61
2019-05-19T15:58:57.602Z,17.59
2019-05-19T16:01:26.062Z,17.45
2019-05-19T16:03:54.577Z,17.37
2019-05-19T16:06:23.013Z,17.20
2019-05-19T16:08:51.561Z,17.11
2019-05-19T16:11:20.066Z,17.15
2019-05-19T16:13:48.587Z,17.19
2019-05-19T16:16:18.552Z,17.15
2019-05-19T16:18:47.063Z,17.11
2019-05-19T16:21:15.622Z,17.18
2019-05-19T16:23:44.117Z,17.09
2019-05-19T16:26:12.580Z,16.99
2019-05-19T16:28:41.082Z,16.96
2019-05-19T16:31:09.601Z,17.03
2019-05-19T16:33:38.043Z,16.93
2019-05-19T16:36:08.038Z,16.82
2019-05-19T16:38:36.734Z,16.70
2019-05-19T16:41:05.269Z,16.72
2019-05-19T16:43:33.764Z,16.67
2019-05-19T16:46:02.279Z,16.70
2019-05-19T16:48:32.325Z,16.64
2019-05-19T16:51:02.421Z,16.87
2019-05-19T16:53:30.918Z,16.88
2019-05-19T16:55:59.364Z,16.90
2019-05-19T16:58:27.897Z,16.80
2019-05-19T17:00:58.172Z,16.68
2019-05-19T17:03:26.593Z,16.71
2019-05-19T17:05:55.181Z,16.73
2019-05-19T17:08:23.738Z,16.81
2019-05-19T17:10:52.158Z,16.73
2019-05-19T17:13:20.737Z,16.70
2019-05-19T17:15:49.279Z,16.70
2019-05-19T17:18:17.765Z,16.75
2019-05-19T17:20:46.247Z,16.54
2019-05-19T17:23:14.682Z,16.38
2019-05-19T17:25:43.202Z,16.39
2019-05-19T17:28:11.793Z,16.30
2019-05-19T17:30:40.428Z,16.38
2019-05-19T17:33:08.914Z,16.39
2019-05-19T17:35:37.347Z,16.26
2019-05-19T17:38:05.920Z,16.34
2019-05-19T17:40:34.343Z,16.28
2019-05-19T17:43:02.771Z,16.21
2019-05-19T17:45:31.312Z,16.26
2019-05-19T17:48:09.545Z,16.08
2019-05-19T17:50:34.819Z,16.05
2019-05-19T17:53:03.880Z,16.10
2019-05-19T17:55:34.950Z,16.00
2019-05-19T17:58:04.517Z,16.03
2019-05-19T18:00:39.018Z,16.06
2019-05-19T18:03:07.978Z,16.09
2019-05-19T18:05:36.636Z,15.98
2019-05-19T18:08:06.015Z,15.92
2019-05-19T18:10:34.616Z,15.82
2019-05-19T18:13:03.229Z,15.88
2019-05-19T18:15:31.757Z,15.77
2019-05-19T18:18:00.405Z,15.89
2019-05-19T18:20:29.022Z,15.73
2019-05-19T18:22:57.532Z,15.64
2019-05-19T18:25:26.230Z,15.73
2019-05-19T18:27:54.765Z,15.58
2019-05-19T18:30:23.249Z,15.33
2019-05-19T18:32:51.748Z,15.22
2019-05-19T18:35:20.244Z,15.09
2019-05-19T18:37:51.237Z,14.94
2019-05-19T18:40:19.946Z,14.84
2019-05-19T18:42:48.504Z,14.90
2019-05-19T18:45:17.108Z,14.77
2019-05-19T18:47:45.518Z,14.61
2019-05-19T18:50:14.159Z,14.55
2019-05-19T18:52:42.711Z,14.44
2019-05-19T18:55:11.354Z,14.40
2019-05-19T18:57:39.812Z,14.45
2019-05-19T19:00:08.583Z,13.84
2019-05-19T19:02:37.209Z,13.80
2019-05-19T19:05:07.362Z,13.71
2019-05-19T19:07:52.308Z,13.34
2019-05-19T19:10:20.912Z,13.14
2019-05-19T19:12:49.455Z,13.17
2019-05-19T19:15:18.096Z,13.26
2019-05-19T19:17:46.663Z,13.24
2019-05-19T19:20:15.460Z,13.19
2019-05-19T19:22:43.964Z,13.11
2019-05-19T19:25:12.516Z,13.14
2019-05-19T19:27:41.108Z,13.03
2019-05-19T19:30:10.508Z,13.10
2019-05-19T19:32:39.020Z,13.14
2019-05-19T19:35:08.364Z,13.08
2019-05-19T19:37:36.891Z,12.93
2019-05-19T19:40:07.068Z,12.79
2019-05-19T19:42:35.495Z,12.64
2019-05-19T19:45:04.832Z,12.72
2019-05-19T19:47:33.342Z,12.92
2019-05-19T19:50:01.805Z,12.93
2019-05-19T19:52:30.312Z,12.98
2019-05-19T19:54:58.783Z,12.87
2019-05-19T19:57:27.258Z,12.99
2019-05-19T19:59:55.715Z,13.24
2019-05-19T20:02:24.343Z,13.06
2019-05-19T20:04:52.780Z,12.99
2019-05-19T20:07:21.283Z,12.92
2019-05-19T20:09:49.935Z,13.01
2019-05-19T20:12:18.351Z,12.96
2019-05-19T20:14:47.245Z,12.98
2019-05-19T20:17:15.717Z,12.94
2019-05-19T20:19:44.208Z,12.95
2019-05-19T20:22:12.733Z,12.90
2019-05-19T20:24:41.159Z,12.78
2019-05-19T20:27:09.719Z,12.73
2019-05-19T20:29:38.260Z,13.02
2019-05-19T20:32:06.802Z,12.89
2019-05-19T20:34:35.295Z,12.78
2019-05-19T20:37:03.900Z,12.84
2019-05-19T20:39:32.401Z,13.02
2019-05-19T20:42:00.868Z,12.71
2019-05-19T20:44:29.292Z,12.72
2019-05-19T20:46:57.816Z,12.83
2019-05-19T20:49:26.320Z,12.85
2019-05-19T20:51:54.794Z,12.79
2019-05-19T20:54:23.268Z,12.67
2019-05-19T20:56:51.682Z,12.55
2019-05-19T20:59:20.155Z,12.68
2019-05-19T21:01:48.657Z,12.50
2019-05-19T21:04:17.243Z,12.56
2019-05-19T21:06:45.721Z,12.54
2019-05-19T21:09:14.407Z,12.42
2019-05-19T21:11:42.865Z,12.27
2019-05-19T21:14:11.319Z,12.10
2019-05-19T21:16:39.763Z,11.97
2019-05-19T21:19:08.276Z,12.00
2019-05-19T21:21:36.696Z,11.88
2019-05-19T21:24:05.206Z,12.07
2019-05-19T21:26:33.621Z,11.99
2019-05-19T21:29:02.152Z,11.77
2019-05-19T21:31:30.715Z,11.75
2019-05-19T21:33:59.149Z,11.77
2019-05-19T21:36:27.630Z,11.76
2019-05-19T21:38:56.115Z,11.64
2019-05-19T21:41:24.791Z,11.69
2019-05-19T21:43:53.305Z,11.82
2019-05-19T21:46:21.831Z,11.68
2019-05-19T21:48:50.246Z,11.74
2019-05-19T21:51:18.662Z,11.69
2019-05-19T21:53:48.193Z,11.66
2019-05-19T21:56:16.692Z,11.62
2019-05-19T21:58:45.108Z,11.66
2019-05-19T22:01:22.895Z,11.51
2019-05-19T22:03:44.080Z,11.46
2019-05-19T22:06:12.637Z,11.47
2019-05-19T22:08:41.159Z,11.47
2019-05-19T22:11:09.644Z,11.50
2019-05-19T22:13:38.099Z,11.43
2019-05-19T22:16:13.088Z,11.48
2019-05-19T22:18:36.889Z,11.53
2019-05-19T22:21:05.446Z,11.07
2019-05-19T22:23:33.974Z,10.87
2019-05-19T22:26:02.380Z,11.07
2019-05-19T22:28:30.828Z,11.19
2019-05-19T22:30:59.432Z,11.21
2019-05-19T22:33:27.853Z,11.20
2019-05-19T22:35:56.314Z,11.20
2019-05-19T22:38:24.793Z,11.34
2019-05-19T22:40:53.213Z,11.38
2019-05-19T22:43:21.716Z,11.32
2019-05-19T22:45:50.121Z,11.40
2019-05-19T22:48:18.553Z,11.32
2019-05-19T22:50:47.021Z,11.22
2019-05-19T22:53:15.448Z,11.18
2019-05-19T22:55:43.975Z,11.23
2019-05-19T22:58:12.407Z,11.14
2019-05-19T23:00:41.004Z,11.11
2019-05-19T23:03:09.454Z,11.15
2019-05-19T23:05:37.944Z,11.09
2019-05-19T23:08:06.417Z,10.86
2019-05-19T23:10:34.896Z,10.92
2019-05-19T23:13:03.402Z,10.99
2019-05-19T23:15:31.929Z,11.03
2019-05-19T23:18:00.420Z,11.01
2019-05-19T23:20:28.860Z,11.10
2019-05-19T23:22:57.378Z,11.13
2019-05-19T23:25:25.827Z,11.13
2019-05-19T23:27:54.250Z,11.14
2019-05-19T23:30:23.035Z,11.28
2019-05-19T23:32:51.521Z,11.49
2019-05-19T23:35:19.988Z,11.42
2019-05-19T23:37:48.725Z,11.47
2019-05-19T23:40:17.221Z,11.45
2019-05-19T23:42:45.740Z,11.61
2019-05-19T23:45:14.229Z,11.57
2019-05-19T23:47:42.661Z,11.58
2019-05-19T23:50:11.986Z,11.64
2019-05-19T23:52:40.499Z,11.46
2019-05-19T23:55:09.066Z,11.44
2019-05-19T23:57:37.518Z,11.46
